TFM - Tactical Decision Aid (Experimental) INFO Settings
ID: Runway Winds: CIG/VIS Threshold: METAR Board: Map:

KMEI - Meridian-Key Field

Updated at: 1908 UTC 23 Apr 2018
Latest TAF at: 1738 UTC 23 Apr 2018

TAF Board

Time1905Z23/20Z23/21Z23/22Z23/23Z24/00Z24/01Z24/02Z24/03Z24/04Z24/05Z24/06Z24/07Z24/08Z
TypeOBSPRVLPRVLPRVLPRVLPRVLPRVLPRVLPRVLPRVLPRVLPRVLPRVLPRVL
VIS10>6>6>6>6>6>6>6>6>6>6>6>6>6
CIG4940404040404040404040401515
CoverOVCOVCOVCOVCOVCOVCOVCOVCOVCOVCOVCOVCOVCOVC
FltCatVFRVFRVFRVFRVFRVFRVFRVFRVFRVFRVFRVFRMVFRMVFR
WX----------------------------
WDir240270270270270270270270270270270270280280
WSpd88888888888833
WGst----------------------------
TAF
KMEI 231738Z 2318/2418 27008KT P6SM SCT025 OVC040
  FM240700 28003KT P6SM OVC015
  FM241400 32010KT P6SM BKN015


METAR Board

Time 23/08Z 23/09Z 23/10Z 23/11Z 23/12Z 23/13Z 23/14Z 23/15Z 23/16Z 23/17Z 23/18Z 23/19Z
Temp
Dewpt
Altim
VIS10 10 9 10 10 10 10 10 10 10 10 10
CIG15 -- 8 10 19 33 10 15 43 33 27 49
CoverOVCFEWBKNOVCOVCOVCOVCOVCOVCOVCOVCOVC
FltCatMVFRVFRIFRMVFRMVFRVFRMVFRMVFRVFRVFRMVFRVFR
WX------------------------
WDir2302100022021002300230260240
WSpd3 4 0 0 4 4 0 8 3 9 7 8
WGst-- -- -- -- -- -- -- -- -- -- -- --
METAR
KMEI 230758Z AUTO 23003KT 10SM OVC015 15/13 A2989 RMK AO2 SLP120 T01500133
KMEI 230858Z AUTO 21004KT 10SM FEW017 14/13 A2989 RMK AO2 SLP120 T01440128 55002
KMEI 230958Z AUTO 00000KT 9SM R01/6000VP6000FT BKN008 BKN042 13/12 A2990 RMK AO2 CIG 007V010 SLP123 T01330122
KMEI 231058Z 00000KT 10SM BKN010 BKN017 OVC041 14/13 A2992 RMK AO2 CIG 008V014 SLP130 T01390128
KMEI 231158Z 22004KT 10SM OVC019 14/12 A2995 RMK AO2 SLP139 70114 T01390117 10156 20128 53018
KMEI 231258Z 21004KT 10SM FEW010 BKN033 OVC043 14/12 A2996 RMK AO2 SLP142 T01390117
KMEI 231403Z 00000KT 10SM BKN010 OVC029 14/12 A2996 RMK AO2 CIG 007V012 T01440117
KMEI 231458Z 23008KT 10SM BKN015 OVC025 16/12 A2996 RMK AO2 SLP142 T01560122 50003
KMEI 231558Z VRB03KT 10SM FEW014 SCT020 OVC043 16/12 A2996 RMK AO2 SLP142 T01610117
KMEI 231658Z 23009KT 10SM SCT025 BKN033 OVC046 18/11 A2995 RMK AO2 SLP139 T01780111
KMEI 231758Z 26007KT 10SM BKN027 BKN039 OVC049 18/11 A2994 RMK AO2 SLP137 T01830111 10183 20133 58005
KMEI 231905Z 24008KT 10SM SCT026 OVC049 19/11 A2993 RMK AO2 T01890111

TAF/METAR Board Legend

Potential Impact
  None Marginal Slight Moderate High
Visibility (sm) >5 3≤X≤5 2≤X<3 0.5≤X<2 <0.5
Ceiling (100 ft) >30 10≤X≤30 6≤X<10 2≤X<6 <2
Wind Speed (kt) <10 10≤X<20 20≤X<30 ≥30
Wind Gust (kt) <15 15≤X<25 25≤X<35 ≥35
Weather No Wx Reported VCTS -TS,-FZRA TS,FZRA +TS,+FZRA